Terminal Aerodrome Forecast
Issued by NWS Twin Cities, MN

Home | Current Version | Previous Version | Graphics & Text | Print | Product List | Glossary On
Versions: 1 2 3 4 5 6 7 8 9 10 11 12 13 14 15 16 17 18 19 20 21 22 23 24 25 26 27 28
658
FTUS43 KMPX 150850 AAA
TAFMSP
TAF AMD
KMSP 150850Z 1509/1612 25008KT P6SM SCT110 SCT200
     FM151500 30008KT P6SM BKN025 OVC040
     FM151800 32012G20KT P6SM -SN SCT010 BKN018
     FM152100 33016G23KT 6SM -SN SCT010 BKN015
     FM160400 31015G22KT P6SM SCT015 BKN100=

USA.gov is the U.S. government's official web portal to all federal, state and local government web resources and services.